Map

Track Data

SID SEASON NUMBER BASIN SUBBASIN NAME ISO_TIME NATURE LAT LON WMO_WIND WMO_PRES WMO_AGENCY TRACK_TYPE DIST2LAND LANDFALL IFLAG USA_AGENCY USA_ATCF_ID USA_LAT USA_LON USA_RECORD USA_STATUS USA_WIND USA_PRES USA_SSHS USA_R34_NE USA_R34_SE USA_R34_SW USA_R34_NW USA_R50_NE USA_R50_SE USA_R50_SW USA_R50_NW USA_R64_NE USA_R64_SE USA_R64_SW USA_R64_NW USA_POCI USA_ROCI USA_RMW USA_EYE TOKYO_LAT TOKYO_LON TOKYO_GRADE TOKYO_WIND TOKYO_PRES TOKYO_R50_DIR TOKYO_R50_LONG TOKYO_R50_SHORT TOKYO_R30_DIR TOKYO_R30_LONG TOKYO_R30_SHORT TOKYO_LAND CMA_LAT CMA_LON CMA_CAT CMA_WIND CMA_PRES HKO_LAT HKO_LON HKO_CAT HKO_WIND HKO_PRES NEWDELHI_LAT NEWDELHI_LON NEWDELHI_GRADE NEWDELHI_WIND NEWDELHI_PRES NEWDELHI_CI NEWDELHI_DP NEWDELHI_POCI REUNION_LAT REUNION_LON REUNION_TYPE REUNION_WIND REUNION_PRES REUNION_TNUM REUNION_CI REUNION_RMW REUNION_R34_NE REUNION_R34_SE REUNION_R34_SW REUNION_R34_NW REUNION_R50_NE REUNION_R50_SE REUNION_R50_SW REUNION_R50_NW REUNION_R64_NE REUNION_R64_SE REUNION_R64_SW REUNION_R64_NW BOM_LAT BOM_LON BOM_TYPE BOM_WIND BOM_PRES BOM_TNUM BOM_CI BOM_RMW BOM_R34_NE BOM_R34_SE BOM_R34_SW BOM_R34_NW BOM_R50_NE BOM_R50_SE BOM_R50_SW BOM_R50_NW BOM_R64_NE BOM_R64_SE BOM_R64_SW BOM_R64_NW BOM_ROCI BOM_POCI BOM_EYE BOM_POS_METHOD BOM_PRES_METHOD NADI_LAT NADI_LON NADI_CAT NADI_WIND NADI_PRES WELLINGTON_LAT WELLINGTON_LON WELLINGTON_WIND WELLINGTON_PRES DS824_LAT DS824_LON DS824_STAGE DS824_WIND DS824_PRES TD9636_LAT TD9636_LON TD9636_STAGE TD9636_WIND TD9636_PRES TD9635_LAT TD9635_LON TD9635_WIND TD9635_PRES TD9635_ROCI NEUMANN_LAT NEUMANN_LON NEUMANN_CLASS NEUMANN_WIND NEUMANN_PRES MLC_LAT MLC_LON MLC_CLASS MLC_WIND MLC_PRES USA_GUST BOM_GUST BOM_GUST_PER REUNION_GUST REUNION_GUST_PER USA_SEAHGT USA_SEARAD_NE USA_SEARAD_SE USA_SEARAD_SW USA_SEARAD_NW STORM_SPEED STORM_DIR
1996037S09095 1996 9 SI WA NOT_NAMED 1996-02-05 18:00:00 TS -8.50000 94.9000 main 881 881 O___________O_ jtwc_sh SH121996 -8.50000 94.9000 15 -1 -8.50000 94.9000 TC 15 6 203
1996037S09095 1996 9 SI WA NOT_NAMED 1996-02-05 21:00:00 TS -8.76251 94.7876 main 916 916 P___________P_ SH121996 -8.76251 94.7876 15 -1 -8.76251 94.7876 TC 15 5 202
1996037S09095 1996 9 SI WA NOT_NAMED 1996-02-06 00:00:00 TS -9.00000 94.7000 main 940 940 O___________O_ jtwc_sh SH121996 -9.00000 94.7000 15 -1 -9.00000 94.7000 TC 15 5 197
1996037S09095 1996 9 SI WA NOT_NAMED 1996-02-06 03:00:00 TS -9.19999 94.6500 main 965 965 P___________P_ SH121996 -9.19999 94.6500 15 -1 -9.19999 94.6500 TC 15 4 193
1996037S09095 1996 9 SI WA NOT_NAMED 1996-02-06 06:00:00 TS -9.40000 94.6000 main 985 985 O___________O_ jtwc_sh SH121996 -9.40000 94.6000 15 -1 -9.40000 94.6000 TC 15 5 197
1996037S09095 1996 9 SI WA NOT_NAMED 1996-02-06 09:00:00 TS -9.65000 94.5075 main 1010 1020 P___________P_ SH121996 -9.65000 94.5075 17 -1 -9.65000 94.5075 TC 17 5 202
1996037S09095 1996 9 SI WA NOT_NAMED 1996-02-06 12:00:00 TS -9.90000 94.4000 main 1045 1045 O___________O_ jtwc_sh SH121996 -9.90000 94.4000 20 -1 -9.90000 94.4000 TC 20 5 203
1996037S09095 1996 9 SI WA NOT_NAMED 1996-02-06 15:00:00 TS -10.1225 94.3075 main 1069 1069 P___________P_ SH121996 -10.1225 94.3075 22 -1 -10.1225 94.3075 TC 22 4 206
1996037S09095 1996 9 SI WA NOT_NAMED 1996-02-06 18:00:00 TS -10.3000 94.2000 main 1094 1094 O___________O_ jtwc_sh SH121996 -10.3000 94.2000 25 -1 -10.3000 94.2000 TC 25 4 217
1996037S09095 1996 9 SI WA NOT_NAMED 1996-02-06 21:00:00 TS -10.4074 94.0874 main 1109 1109 P___________P_ SH121996 -10.4074 94.0874 27 -1 -10.4074 94.0874 TC 27 4 236
1996037S09095 1996 9 SI WA NOT_NAMED 1996-02-07 00:00:00 TS -10.5000 93.9000 main 1130 1130 O___________O_ jtwc_sh SH121996 -10.5000 93.9000 30 -1 -10.5000 93.9000 TC 30 6 243
1996037S09095 1996 9 SI WA NOT_NAMED 1996-02-07 03:00:00 TS -10.6575 93.5801 main 1166 1166 P___________P_ SH121996 -10.6575 93.5801 32 -1 -10.6575 93.5801 TC 32 8 246
1996037S09095 1996 9 SI WA NOT_NAMED 1996-02-07 06:00:00 TS -10.8000 93.2000 main 1198 1198 O___________O_ jtwc_sh SH121996 -10.8000 93.2000 35 0 -10.8000 93.2000 TC 35 8 255
1996037S09095 1996 9 SI WA NOT_NAMED 1996-02-07 09:00:00 TS -10.8575 92.8274 main 1231 1231 P___________P_ SH121996 -10.8575 92.8274 35 0 -10.8575 92.8274 TC 35 7 262
1996037S09095 1996 9 SI WA NOT_NAMED 1996-02-07 12:00:00 TS -10.9000 92.5000 main 1250 1250 O___________O_ jtwc_sh SH121996 -10.9000 92.5000 35 0 -10.9000 92.5000 TC 35 6 257
1996037S09095 1996 9 SI WA NOT_NAMED 1996-02-07 15:00:00 TS -10.9850 92.2625 main 1271 1271 P___________P_ SH121996 -10.9850 92.2625 32 -1 -10.9850 92.2625 TC 32 4 243
1996037S09095 1996 9 SI WA NOT_NAMED 1996-02-07 18:00:00 TS -11.1000 92.1000 main 1293 1293 O___________O_ jtwc_sh SH121996 -11.1000 92.1000 30 -1 -11.1000 92.1000 TC 30 4 228
1996037S09095 1996 9 SI WA NOT_NAMED 1996-02-07 21:00:00 TS -11.2350 91.9775 main 1309 1309 P___________P_ SH121996 -11.2350 91.9775 30 -1 -11.2350 91.9775 TC 30 4 213
1996037S09095 1996 9 SI WA NOT_NAMED 1996-02-08 00:00:00 TS -11.4000 91.9000 main 1333 1333 O___________O_ jtwc_sh SH121996 -11.4000 91.9000 30 -1 -11.4000 91.9000 TC 30 4 200
1996037S09095 1996 9 SI WA NOT_NAMED 1996-02-08 03:00:00 TS -11.6075 91.8350 main 1358 1358 P___________P_ SH121996 -11.6075 91.8350 30 -1 -11.6075 91.8350 TC 30 4 193
1996037S09095 1996 9 SI WA NOT_NAMED 1996-02-08 06:00:00 TS -11.8000 91.8000 main 1376 1376 O___________O_ jtwc_sh SH121996 -11.8000 91.8000 30 -1 -11.8000 91.8000 TC 30 3 186
1996037S09095 1996 9 SI WA NOT_NAMED 1996-02-08 09:00:00 TS -11.9150 91.7925 main 1385 1385 P___________P_ SH121996 -11.9150 91.7925 30 -1 -11.9150 91.7925 TC 30 2 172
1996037S09095 1996 9 SI WA NOT_NAMED 1996-02-08 12:00:00 TS -12.0000 91.8000 main 1394 1394 O___________O_ jtwc_sh SH121996 -12.0000 91.8000 30 -1 -12.0000 91.8000 TC 30 2 175
1996037S09095 1996 9 SI WA NOT_NAMED 1996-02-08 15:00:00 TS -12.1000 91.8075 main 1404 1404 P___________P_ SH121996 -12.1000 91.8075 25 -1 -12.1000 91.8075 TC 25 2 172
1996037S09095 1996 9 SI WA NOT_NAMED 1996-02-08 18:00:00 TS -12.2000 91.8000 main 1413 1413 O___________O_ jtwc_sh SH121996 -12.2000 91.8000 20 -1 -12.2000 91.8000 TC 20 2 193
1996037S09095 1996 9 SI WA NOT_NAMED 1996-02-08 21:00:00 TS -12.3000 91.7650 main 1422 1422 P___________P_ SH121996 -12.3000 91.7650 17 -1 -12.3000 91.7650 TC 17 2 207
1996037S09095 1996 9 SI WA NOT_NAMED 1996-02-09 00:00:00 TS -12.4000 91.7000 main 1437 1437 O___________O_ jtwc_sh SH121996 -12.4000 91.7000 15 -1 -12.4000 91.7000 TC 15 3 216
1996037S09095 1996 9 SI WA NOT_NAMED 1996-02-09 03:00:00 TS -12.5075 91.6150 main 1453 1453 P___________P_ SH121996 -12.5075 91.6150 15 -1 -12.5075 91.6150 TC 15 3 224
1996037S09095 1996 9 SI WA NOT_NAMED 1996-02-09 06:00:00 TS -12.6000 91.5000 main 1468 1468 O___________O_ jtwc_sh SH121996 -12.6000 91.5000 15 -1 -12.6000 91.5000 TC 15 3 239
1996037S09095 1996 9 SI WA NOT_NAMED 1996-02-09 09:00:00 TS -12.6575 91.3575 main 1484 1484 P___________P_ SH121996 -12.6575 91.3575 15 -1 -12.6575 91.3575 TC 15 3 251
1996037S09095 1996 9 SI WA NOT_NAMED 1996-02-09 12:00:00 TS -12.7000 91.2000 main 1496 1496 O___________O_ jtwc_sh SH121996 -12.7000 91.2000 15 -1 -12.7000 91.2000 TC 15 3 251
1996037S09095 1996 9 SI WA NOT_NAMED 1996-02-09 15:00:00 TS -12.7499 91.0725 main 1502 1502 P___________P_ SH121996 -12.7499 91.0725 15 -1 -12.7499 91.0725 TC 15 3 251
1996037S09095 1996 9 SI WA NOT_NAMED 1996-02-09 18:00:00 TS -12.8000 90.9000 main 1524 1524 O___________O_ jtwc_sh SH121996 -12.8000 90.9000 15 -1 -12.8000 90.9000 TC 15 4 255
1996037S09095 1996 9 SI WA NOT_NAMED 1996-02-09 21:00:00 TS -12.8574 90.6525 main 1546 1546 P___________P_ SH121996 -12.8574 90.6525 15 -1 -12.8574 90.6525 TC 15 6 260
1996037S09095 1996 9 SI WA NOT_NAMED 1996-02-10 00:00:00 TS -12.9000 90.3000 main 1572 1572 O___________O_ jtwc_sh SH121996 -12.9000 90.3000 15 -1 -12.9000 90.3000 TC 15 8 266
1996037S09095 1996 9 SI MM NOT_NAMED 1996-02-10 03:00:00 TS -12.9150 89.8450 main 1606 1606 P___________P_ SH121996 -12.9150 89.8450 15 -1 -12.9150 89.8450 TC 15 10 270
1996037S09095 1996 9 SI MM NOT_NAMED 1996-02-10 06:00:00 TS -12.9000 89.3000 main 1641 1641 O___________O_ jtwc_sh SH121996 -12.9000 89.3000 15 -1 -12.9000 89.3000 TC 15 11 273
1996037S09095 1996 9 SI MM NOT_NAMED 1996-02-10 09:00:00 TS -12.8578 88.7099 main 1684 1683 P___________P_ SH121996 -12.8578 88.7099 15 -1 -12.8578 88.7099 TC 15 12 275
1996037S09095 1996 9 SI MM NOT_NAMED 1996-02-10 12:00:00 TS -12.8000 88.1000 main 1721 O___________O_ jtwc_sh SH121996 -12.8000 88.1000 15 -1 -12.8000 88.1000 TC 15 12 276

About IBTrACS Database

This database is a web-friendly format of International Best Track Archive for Climate Stewardship (IBTrACS), a global best track data archive curated by NOAA dating back to 1842.

Updated: 2021-10-08